Time;durP1;ratioP1;P1;durP2;ratioP2;P2;SDS_P1;SDS_P2;PMS_P1;PMS_P2;Temp;Humidity;BMP_temperature;BMP_pressure;BME280_temperature;BME280_humidity;BME280_pressure;Samples;Min_cycle;Max_cycle;Signal;HPM_P1;HPM_P2
2022/05/01 00:00:11;;;;;;;18.35;10.13;;;13.20;87.00;;;;;;4926001;29;20031;-82
2022/05/01 00:02:37;;;;;;;18.05;11.57;;;13.20;88.10;;;;;;4905621;29;20036;-80
2022/05/01 00:05:07;;;;;;;17.30;12.23;;;13.20;87.50;;;;;;4921690;29;20119;-80
2022/05/01 00:07:33;;;;;;;24.33;14.77;;;13.20;88.30;;;;;;4924028;29;20090;-80
2022/05/01 00:09:59;;;;;;;21.85;13.63;;;13.10;88.30;;;;;;4923464;29;20024;-81
2022/05/01 00:12:37;;;;;;;22.13;15.70;;;13.10;88.20;;;;;;4921798;29;20039;-80
2022/05/01 00:15:05;;;;;;;23.70;16.40;;;13.10;88.20;;;;;;4926811;29;20019;-80
2022/05/01 00:17:33;;;;;;;29.05;18.15;;;13.10;87.80;;;;;;4921546;29;20521;-79
2022/05/01 00:20:04;;;;;;;29.85;19.17;;;13.20;87.10;;;;;;4929195;29;20476;-79
2022/05/01 00:22:42;;;;;;;40.55;21.33;;;13.20;86.10;;;;;;4924347;29;20491;-80
2022/05/01 00:25:13;;;;;;;23.48;16.48;;;13.30;85.80;;;;;;4922096;29;20024;-80
2022/05/01 00:27:38;;;;;;;22.08;13.57;;;13.40;88.10;;;;;;4923312;29;20024;-82
2022/05/01 00:30:08;;;;;;;21.75;14.98;;;13.40;88.10;;;;;;4921394;29;20483;-80
2022/05/01 00:38:41;;;;;;;;;;;13.20;88.70;;;;;;4927710;29;20038;-80
2022/05/01 00:41:48;;;;;;;45.65;27.80;;;13.20;89.70;;;;;;4896332;29;19917;-80
2022/05/01 00:44:24;;;;;;;50.78;31.35;;;13.20;89.70;;;;;;4919955;29;20095;-80
2022/05/01 00:47:13;;;;;;;59.38;33.78;;;13.30;88.30;;;;;;4921315;29;20035;-80
2022/05/01 00:49:41;;;;;;;54.40;32.47;;;13.40;88.30;;;;;;4923622;29;20526;-80
2022/05/01 00:52:09;;;;;;;35.28;21.05;;;13.50;88.60;;;;;;4923496;29;20043;-80
2022/05/01 00:54:38;;;;;;;34.20;22.15;;;13.60;89.10;;;;;;4921350;29;20132;-80
2022/05/01 00:57:07;;;;;;;43.45;24.85;;;13.60;90.20;;;;;;4911940;29;20392;-80
2022/05/01 00:59:45;;;;;;;40.30;24.48;;;13.60;90.20;;;;;;4921870;29;20044;-80
2022/05/01 01:02:11;;;;;;;46.80;25.08;;;13.50;89.10;;;;;;4923121;29;20476;-81
2022/05/01 01:04:40;;;;;;;43.67;26.52;;;13.60;89.80;;;;;;4918811;29;20047;-81
2022/05/01 01:07:14;;;;;;;48.78;28.13;;;13.60;89.80;;;;;;4923292;29;20101;-80
2022/05/01 01:09:43;;;;;;;41.20;26.50;;;13.60;89.70;;;;;;4919656;29;20135;-80
2022/05/01 01:12:57;;;;;;;45.10;26.08;;;13.60;90.20;;;;;;4920787;29;20068;-80
2022/05/01 01:15:46;;;;;;;47.58;25.75;;;13.60;90.20;;;;;;4901175;29;20056;-80
2022/05/01 01:18:18;;;;;;;42.25;24.73;;;13.60;90.10;;;;;;4919247;29;20040;-80
2022/05/01 01:20:47;;;;;;;39.88;23.13;;;13.60;90.80;;;;;;4924852;29;20605;-80
2022/05/01 01:23:14;;;;;;;32.70;18.95;;;13.60;91.00;;;;;;4925894;29;20052;-80
2022/05/01 01:25:40;;;;;;;23.75;16.35;;;13.70;91.20;;;;;;4928202;29;20118;-81
2022/05/01 01:28:08;;;;;;;27.02;16.98;;;13.70;90.90;;;;;;4921617;29;20032;-81
2022/05/01 01:33:41;;;;;;;;;;;;;;;;;;;;;
2022/05/01 01:36:08;;;;;;;24.85;13.55;;;13.70;90.90;;;;;;4924467;29;20042;-81
2022/05/01 01:38:36;;;;;;;21.42;13.25;;;13.80;90.40;;;;;;4920891;29;20107;-80
2022/05/01 01:41:30;;;;;;;22.48;12.68;;;13.90;90.80;;;;;;4923295;29;20240;-80
2022/05/01 01:43:57;;;;;;;24.48;11.00;;;13.90;90.30;;;;;;4919410;29;20100;-81
2022/05/01 01:46:22;;;;;;;19.45;11.38;;;14.10;89.70;;;;;;4922760;29;20020;-81
2022/05/01 01:48:48;;;;;;;17.67;11.02;;;14.30;90.00;;;;;;4920323;29;20051;-81
2022/05/01 01:51:14;;;;;;;21.88;10.80;;;14.30;89.50;;;;;;4903407;29;20028;-82
2022/05/01 01:53:41;;;;;;;15.43;9.85;;;14.50;90.20;;;;;;4919780;29;20080;-82
2022/05/01 01:56:08;;;;;;;14.18;9.25;;;14.50;89.70;;;;;;4925259;29;20032;-81
2022/05/01 01:58:36;;;;;;;12.85;8.73;;;14.50;89.70;;;;;;4919735;29;20028;-81
2022/05/01 02:01:07;;;;;;;11.85;7.50;;;14.40;90.20;;;;;;4905155;29;20031;-79
2022/05/01 02:03:36;;;;;;;11.90;7.10;;;14.50;89.30;;;;;;4925650;29;20100;-82
2022/05/01 02:06:04;;;;;;;8.68;6.28;;;14.60;89.80;;;;;;4925936;29;20031;-81
2022/05/01 02:08:31;;;;;;;17.27;6.00;;;14.70;89.10;;;;;;4922227;29;20479;-81
2022/05/01 02:10:57;;;;;;;9.07;5.88;;;14.70;90.00;;;;;;4927170;29;21657;-81
2022/05/01 02:13:22;;;;;;;9.63;5.75;;;14.70;89.80;;;;;;4927729;29;20090;-81
2022/05/01 02:15:48;;;;;;;11.10;5.93;;;14.70;89.80;;;;;;4908337;29;20120;-82
2022/05/01 02:18:14;;;;;;;5.80;4.90;;;14.70;89.30;;;;;;4922658;29;20487;-81
2022/05/01 02:23:24;;;;;;;8.77;5.57;;;14.90;89.00;;;;;;4927322;29;20055;-81
2022/05/01 02:25:50;;;;;;;6.85;5.03;;;14.80;89.80;;;;;;4902915;29;21790;-82
2022/05/01 02:28:16;;;;;;;9.45;5.30;;;14.90;90.20;;;;;;4924897;29;20381;-82
2022/05/01 02:30:42;;;;;;;8.77;6.00;;;14.90;90.00;;;;;;4924863;29;20042;-81
2022/05/01 02:33:12;;;;;;;11.50;5.15;;;14.90;90.10;;;;;;4927008;29;20054;-81
2022/05/01 02:35:38;;;;;;;10.77;5.72;;;14.90;89.90;;;;;;4924573;29;20036;-81
2022/05/01 02:38:04;;;;;;;11.18;5.60;;;14.90;90.00;;;;;;4928626;29;20029;-81
2022/05/01 02:40:36;;;;;;;7.38;6.15;;;14.90;89.90;;;;;;4928032;29;20028;-83
2022/05/01 02:43:02;;;;;;;11.27;5.63;;;14.80;90.30;;;;;;4925059;29;20033;-82
2022/05/01 02:45:28;;;;;;;8.07;5.78;;;14.80;90.30;;;;;;4903462;29;20616;-82
2022/05/01 02:47:55;;;;;;;7.97;5.63;;;14.70;90.50;;;;;;4926139;29;20032;-83
2022/05/01 02:50:21;;;;;;;10.55;5.45;;;14.80;90.30;;;;;;4909601;29;20028;-82
2022/05/01 02:52:47;;;;;;;7.03;5.40;;;14.90;90.30;;;;;;4926773;29;20480;-82
2022/05/01 02:55:16;;;;;;;8.70;5.82;;;14.90;90.30;;;;;;4931431;29;20111;-81
2022/05/01 02:57:44;;;;;;;9.95;5.80;;;14.90;90.40;;;;;;4924236;29;20102;-82
2022/05/01 03:00:16;;;;;;;7.45;5.40;;;15.00;90.40;;;;;;4927717;29;20090;-81
2022/05/01 03:02:46;;;;;;;9.07;5.00;;;15.00;90.20;;;;;;4925583;29;20616;-82
2022/05/01 03:05:16;;;;;;;7.75;5.95;;;15.20;90.00;;;;;;4931251;29;20095;-82
2022/05/01 03:07:42;;;;;;;7.32;5.80;;;15.20;90.80;;;;;;4923967;29;20498;-82
2022/05/01 03:10:10;;;;;;;8.80;5.57;;;15.10;90.50;;;;;;4921215;29;20024;-82
2022/05/01 03:12:37;;;;;;;7.53;5.90;;;15.10;90.50;;;;;;4926029;29;20428;-82
2022/05/01 03:15:07;;;;;;;9.80;5.93;;;15.10;90.70;;;;;;4920349;29;20514;-81
2022/05/01 03:23:05;;;;;;;11.13;6.18;;;15.00;90.30;;;;;;4925121;29;20055;-81
2022/05/01 03:25:31;;;;;;;8.18;5.47;;;15.10;90.70;;;;;;4928131;29;20028;-81
2022/05/01 03:27:57;;;;;;;7.57;5.53;;;15.00;90.70;;;;;;4925728;29;20024;-81
2022/05/01 03:30:23;;;;;;;9.98;5.93;;;15.00;90.60;;;;;;4920776;29;20028;-82
2022/05/01 03:32:49;;;;;;;11.82;5.80;;;15.00;90.90;;;;;;4926944;29;20032;-82
2022/05/01 03:35:18;;;;;;;7.72;5.55;;;15.00;91.00;;;;;;4920051;29;20475;-81
2022/05/01 03:37:48;;;;;;;8.35;5.72;;;15.00;90.80;;;;;;4923199;29;20032;-82
2022/05/01 03:40:15;;;;;;;7.18;5.60;;;14.90;91.10;;;;;;4928916;29;20373;-81
2022/05/01 03:46:06;;;;;;;8.57;6.05;;;15.00;91.30;;;;;;4872915;29;20052;-81
2022/05/01 03:48:33;;;;;;;8.88;5.25;;;14.90;91.40;;;;;;4875227;29;20516;-81
2022/05/01 03:51:31;;;;;;;9.18;5.57;;;15.00;91.60;;;;;;4899854;29;20135;-81
2022/05/01 03:54:02;;;;;;;7.43;6.15;;;14.90;91.50;;;;;;4888513;29;20041;-82
2022/05/01 03:56:56;;;;;;;;;;;;;;;;;;;;;
2022/05/01 03:59:25;;;;;;;8.77;6.03;;;14.80;91.80;;;;;;4895010;29;20040;-82
2022/05/01 04:05:07;;;;;;;8.18;6.05;;;14.80;92.00;;;;;;4923872;29;20044;-81
2022/05/01 04:07:36;;;;;;;7.57;5.85;;;14.80;92.00;;;;;;4922333;29;20028;-80
2022/05/01 04:10:31;;;;;;;8.50;5.90;;;14.80;92.30;;;;;;4925863;29;20099;-80
2022/05/01 04:13:18;;;;;;;8.27;5.55;;;14.80;92.30;;;;;;4897543;29;20035;-80
2022/05/01 04:15:50;;;;;;;9.70;5.78;;;14.80;92.10;;;;;;4917824;29;20075;-80
2022/05/01 04:18:44;;;;;;;6.63;5.35;;;14.80;92.30;;;;;;4908372;29;20489;-80
2022/05/01 04:21:16;;;;;;;9.27;5.72;;;14.80;92.60;;;;;;4921585;29;20072;-80
2022/05/01 04:23:44;;;;;;;8.37;5.63;;;14.80;92.40;;;;;;4927391;29;20032;-80
2022/05/01 04:26:31;;;;;;;8.02;5.97;;;14.90;92.50;;;;;;4925764;29;20278;-79
2022/05/01 04:32:08;;;;;;;11.35;5.53;;;15.00;92.50;;;;;;4928009;29;20075;-80
2022/05/01 04:34:37;;;;;;;7.25;5.53;;;15.00;92.20;;;;;;4919571;29;20403;-80
2022/05/01 04:37:15;;;;;;;8.70;5.78;;;15.00;92.40;;;;;;4924320;29;20051;-80
2022/05/01 04:40:08;;;;;;;11.50;5.88;;;15.10;92.60;;;;;;4922717;29;20039;-80
2022/05/01 04:42:36;;;;;;;8.23;5.85;;;15.10;92.70;;;;;;4924578;29;20060;-79
2022/05/01 04:45:03;;;;;;;9.10;5.60;;;15.10;92.60;;;;;;4926523;29;20478;-80
2022/05/01 04:47:29;;;;;;;7.78;5.88;;;15.20;92.60;;;;;;4921534;29;20024;-80
2022/05/01 04:49:55;;;;;;;8.65;6.53;;;15.20;92.00;;;;;;4921363;29;20490;-80
2022/05/01 04:52:46;;;;;;;7.25;6.15;;;15.30;92.10;;;;;;4921607;29;20026;-79
2022/05/01 04:55:31;;;;;;;7.53;5.95;;;15.30;92.40;;;;;;4925580;29;20055;-82
2022/05/01 04:57:57;;;;;;;9.32;5.68;;;15.30;92.60;;;;;;4920484;29;20115;-83
2022/05/01 05:00:23;;;;;;;7.25;5.43;;;15.30;92.80;;;;;;4925418;29;20028;-82
2022/05/01 05:02:51;;;;;;;7.45;5.93;;;15.20;92.80;;;;;;4923154;29;20039;-82
2022/05/01 05:05:19;;;;;;;10.27;5.90;;;15.30;92.80;;;;;;4917576;29;20056;-82
2022/05/01 05:07:48;;;;;;;8.55;5.60;;;15.20;93.10;;;;;;4902742;29;20543;-83
2022/05/01 05:10:14;;;;;;;6.55;5.45;;;15.20;92.90;;;;;;4926624;29;20471;-82
2022/05/01 05:12:42;;;;;;;8.75;5.90;;;15.20;93.00;;;;;;4921795;29;20047;-83
2022/05/01 05:15:14;;;;;;;10.68;5.50;;;15.30;93.30;;;;;;4901230;29;20126;-83
2022/05/01 05:18:12;;;;;;;9.32;5.97;;;15.30;93.50;;;;;;4922453;29;20082;-81
2022/05/01 05:21:01;;;;;;;9.73;6.13;;;15.30;93.20;;;;;;4895665;29;20055;-81
2022/05/01 05:23:27;;;;;;;6.82;5.97;;;15.30;93.60;;;;;;4923206;29;20046;-84
2022/05/01 05:25:56;;;;;;;7.13;5.78;;;15.40;93.40;;;;;;4918857;29;20021;-81
2022/05/01 05:28:22;;;;;;;7.40;5.65;;;15.50;93.60;;;;;;4921504;29;20119;-81
2022/05/01 05:30:51;;;;;;;8.88;5.88;;;15.60;93.50;;;;;;4919850;29;20032;-84
2022/05/01 05:33:29;;;;;;;7.88;5.43;;;15.70;93.30;;;;;;4907144;29;20059;-81
2022/05/01 05:36:00;;;;;;;7.95;5.85;;;15.80;93.00;;;;;;4920986;29;20027;-82
2022/05/01 05:38:26;;;;;;;8.07;6.10;;;16.00;93.60;;;;;;4904493;29;20024;-82
2022/05/01 05:40:52;;;;;;;7.97;5.85;;;16.10;93.00;;;;;;4921946;29;20092;-82
2022/05/01 05:43:21;;;;;;;7.55;5.97;;;16.30;93.10;;;;;;4925279;29;20052;-81
2022/05/01 05:45:47;;;;;;;6.22;5.50;;;16.40;92.80;;;;;;4924597;29;20038;-83
2022/05/01 05:48:12;;;;;;;8.27;6.38;;;16.40;92.80;;;;;;4928055;29;20036;-84
2022/05/01 05:50:38;;;;;;;8.02;5.70;;;16.60;92.60;;;;;;4911453;29;20028;-83
2022/05/01 05:53:04;;;;;;;5.82;5.20;;;16.70;92.60;;;;;;4925605;29;20028;-83
2022/05/01 05:55:33;;;;;;;6.40;5.70;;;16.70;92.40;;;;;;4930291;29;20031;-83
2022/05/01 05:58:00;;;;;;;10.63;6.15;;;16.80;92.20;;;;;;4906983;29;20092;-83
2022/05/01 06:00:26;;;;;;;8.07;5.40;;;16.90;92.10;;;;;;4922661;29;20028;-83
2022/05/01 06:02:52;;;;;;;8.43;5.55;;;16.90;92.30;;;;;;4928686;29;20068;-83
2022/05/01 06:05:18;;;;;;;6.53;5.43;;;16.90;92.60;;;;;;4920884;29;20499;-82
2022/05/01 06:07:46;;;;;;;8.63;5.70;;;16.90;92.60;;;;;;4925898;29;20036;-83
2022/05/01 06:10:12;;;;;;;8.25;5.80;;;17.00;92.50;;;;;;4927825;29;20024;-83
2022/05/01 06:12:42;;;;;;;8.15;5.75;;;17.00;91.90;;;;;;4926387;29;20050;-83
2022/05/01 06:15:08;;;;;;;7.32;5.28;;;17.00;92.00;;;;;;4924363;29;20395;-83
2022/05/01 06:17:34;;;;;;;8.73;6.13;;;17.00;92.50;;;;;;4925918;29;20028;-83
2022/05/01 06:20:00;;;;;;;9.82;6.20;;;17.00;92.40;;;;;;4923476;29;20161;-83
2022/05/01 06:22:26;;;;;;;11.82;5.90;;;17.00;92.70;;;;;;4925745;29;20039;-83
2022/05/01 06:24:52;;;;;;;11.27;5.75;;;17.00;92.40;;;;;;4928746;29;20020;-83
2022/05/01 06:27:18;;;;;;;8.70;5.32;;;17.20;92.50;;;;;;4924421;29;20043;-83
2022/05/01 06:29:44;;;;;;;6.68;5.45;;;17.40;92.50;;;;;;4924951;29;20020;-83
2022/05/01 06:32:10;;;;;;;8.23;5.72;;;17.60;93.10;;;;;;4928510;29;20483;-83
2022/05/01 06:34:37;;;;;;;10.07;6.03;;;17.80;92.90;;;;;;4923323;29;20030;-83
2022/05/01 06:37:04;;;;;;;6.20;5.00;;;17.90;91.90;;;;;;4923779;29;20130;-83
2022/05/01 06:39:29;;;;;;;6.63;5.13;;;18.10;92.00;;;;;;4922778;29;20016;-83
2022/05/01 06:41:55;;;;;;;7.47;5.28;;;18.30;91.20;;;;;;4926050;29;20035;-83
2022/05/01 06:44:21;;;;;;;7.55;5.15;;;18.50;90.50;;;;;;4922907;29;20110;-84
2022/05/01 06:46:46;;;;;;;7.57;5.28;;;18.60;90.20;;;;;;4925042;29;20020;-83
2022/05/01 06:49:12;;;;;;;8.52;4.90;;;18.70;89.20;;;;;;4905725;29;20031;-83
2022/05/01 06:51:38;;;;;;;6.65;5.78;;;18.70;90.40;;;;;;4908215;29;20050;-83
2022/05/01 06:54:06;;;;;;;7.15;5.28;;;18.70;90.00;;;;;;4929801;29;20107;-83
2022/05/01 06:56:32;;;;;;;8.23;5.82;;;18.70;90.20;;;;;;4907548;29;20028;-81
2022/05/01 06:58:57;;;;;;;8.05;5.63;;;18.80;90.50;;;;;;4929356;28;20035;-83
2022/05/01 07:01:26;;;;;;;6.38;5.30;;;18.80;90.30;;;;;;4927855;29;20566;-80
2022/05/01 07:03:51;;;;;;;6.40;5.75;;;18.90;90.30;;;;;;4929107;29;20040;-80
2022/05/01 07:06:17;;;;;;;7.35;5.38;;;18.90;90.20;;;;;;4921545;29;20448;-80
2022/05/01 07:08:43;;;;;;;14.55;6.85;;;18.90;89.70;;;;;;4928277;29;20492;-81
2022/05/01 07:11:09;;;;;;;7.78;5.45;;;19.10;91.10;;;;;;4928119;29;20026;-82
2022/05/01 07:13:36;;;;;;;7.50;5.30;;;19.20;90.20;;;;;;4913151;29;20415;-80
2022/05/01 07:16:02;;;;;;;11.73;5.75;;;19.40;89.20;;;;;;4913152;29;20059;-81
2022/05/01 07:18:27;;;;;;;6.45;5.28;;;19.60;88.90;;;;;;4910344;29;20071;-81
2022/05/01 07:20:53;;;;;;;6.00;5.40;;;19.80;88.40;;;;;;4912817;29;20028;-80
2022/05/01 07:23:23;;;;;;;6.53;5.10;;;20.00;87.40;;;;;;4908234;29;20056;-80
2022/05/01 07:25:49;;;;;;;5.93;5.00;;;20.10;87.70;;;;;;4916529;29;20031;-80
2022/05/01 07:28:17;;;;;;;8.65;4.97;;;20.10;87.30;;;;;;4909487;29;20123;-81
2022/05/01 07:30:43;;;;;;;5.45;4.95;;;20.10;89.10;;;;;;4906712;29;20035;-80
2022/05/01 07:33:08;;;;;;;7.53;5.68;;;20.00;88.20;;;;;;4905891;29;20024;-80
2022/05/01 07:35:34;;;;;;;9.93;5.50;;;20.00;88.80;;;;;;4904361;29;20040;-85
2022/05/01 07:38:00;;;;;;;7.53;6.03;;;20.00;88.60;;;;;;4908606;29;20552;-90
2022/05/01 07:40:27;;;;;;;10.20;5.80;;;20.30;89.20;;;;;;4913574;29;20028;-87
2022/05/01 07:42:53;;;;;;;8.52;5.13;;;20.50;87.70;;;;;;4906153;29;20032;-87
2022/05/01 07:45:19;;;;;;;7.20;5.50;;;20.60;87.90;;;;;;4917157;29;20031;-86
2022/05/01 07:47:45;;;;;;;10.55;5.30;;;20.70;84.90;;;;;;4913121;29;20024;-90
2022/05/01 07:50:11;;;;;;;8.73;6.18;;;20.80;86.80;;;;;;4926544;29;20065;-82
2022/05/01 07:52:37;;;;;;;8.30;6.00;;;20.80;85.90;;;;;;4903884;29;20039;-82
2022/05/01 07:55:07;;;;;;;7.90;5.13;;;21.00;85.20;;;;;;4903718;29;20028;-84
2022/05/01 07:57:33;;;;;;;13.40;5.45;;;21.10;84.70;;;;;;4909197;29;20024;-91
2022/05/01 07:59:58;;;;;;;11.43;5.43;;;21.30;84.70;;;;;;4907438;29;20024;-90
2022/05/01 08:02:32;;;;;;;5.80;5.15;;;21.50;85.00;;;;;;4911353;29;20028;-86
2022/05/01 08:04:58;;;;;;;9.30;5.68;;;21.70;84.00;;;;;;4921346;29;20032;-81
2022/05/01 08:07:28;;;;;;;5.95;5.35;;;21.80;83.20;;;;;;4915331;29;20048;-85
2022/05/01 08:09:54;;;;;;;6.88;5.32;;;21.90;82.00;;;;;;4912347;29;20388;-83
2022/05/01 08:12:20;;;;;;;7.35;5.40;;;22.00;82.60;;;;;;4905219;29;20083;-81
2022/05/01 08:14:46;;;;;;;7.28;5.18;;;22.10;82.90;;;;;;4907219;29;20040;-83
2022/05/01 08:17:12;;;;;;;6.47;5.15;;;22.20;80.40;;;;;;4920397;29;20043;-84
2022/05/01 08:22:39;;;;;;;5.90;5.20;;;22.20;79.00;;;;;;4912900;29;20048;-80
2022/05/01 08:25:05;;;;;;;6.25;5.25;;;22.10;78.40;;;;;;4904850;29;20048;-80
2022/05/01 08:27:31;;;;;;;7.15;5.80;;;22.20;80.00;;;;;;4906969;29;20040;-80
2022/05/01 08:29:57;;;;;;;7.03;5.78;;;22.20;79.70;;;;;;4906299;29;20115;-80
2022/05/01 08:32:22;;;;;;;10.13;5.43;;;22.10;80.80;;;;;;4906789;29;20428;-88
2022/05/01 08:34:49;;;;;;;8.02;5.72;;;22.20;80.40;;;;;;4915517;29;20027;-82
2022/05/01 08:37:14;;;;;;;7.60;5.53;;;22.20;80.80;;;;;;4906809;29;20024;-81
2022/05/01 08:39:40;;;;;;;7.60;5.40;;;22.30;80.20;;;;;;4907930;29;20032;-83
2022/05/01 08:42:06;;;;;;;10.30;5.88;;;22.40;80.50;;;;;;4906366;29;20088;-85
2022/05/01 08:44:36;;;;;;;6.28;5.53;;;22.50;79.10;;;;;;4905758;29;20043;-82
2022/05/01 08:47:38;;;;;;;7.25;5.63;;;22.50;79.60;;;;;;4904491;29;20032;-83
2022/05/01 08:50:08;;;;;;;7.47;5.85;;;22.60;80.30;;;;;;4907599;29;20063;-82
2022/05/01 08:52:36;;;;;;;9.77;5.85;;;22.60;80.20;;;;;;4905205;29;20028;-82
2022/05/01 08:55:05;;;;;;;14.82;6.90;;;22.80;81.60;;;;;;4900903;29;20017;-82
2022/05/01 08:57:33;;;;;;;8.15;5.97;;;22.90;81.60;;;;;;4905313;29;20106;-81
2022/05/01 08:59:59;;;;;;;7.40;6.00;;;23.00;79.70;;;;;;4902603;29;20043;-82
2022/05/01 09:02:28;;;;;;;6.68;6.07;;;22.80;79.80;;;;;;4922628;29;20032;-82
2022/05/01 09:04:58;;;;;;;6.68;5.75;;;22.70;80.60;;;;;;4906786;29;20028;-82
2022/05/01 09:07:24;;;;;;;6.75;6.05;;;22.70;79.90;;;;;;4904876;29;20027;-82
2022/05/01 09:09:51;;;;;;;8.02;5.95;;;22.60;80.90;;;;;;4899395;29;20432;-82
2022/05/01 09:15:03;;;;;;;8.13;6.40;;;22.80;78.10;;;;;;4905713;29;20155;-82
2022/05/01 09:17:29;;;;;;;7.18;6.10;;;22.80;80.40;;;;;;4908518;29;20027;-82
2022/05/01 09:20:06;;;;;;;7.00;5.93;;;22.80;79.90;;;;;;4910860;29;20024;-82
2022/05/01 09:22:51;;;;;;;6.82;5.93;;;22.80;77.30;;;;;;4907628;29;20063;-82
2022/05/01 09:25:19;;;;;;;6.97;5.78;;;22.60;78.60;;;;;;4913778;29;20037;-82
2022/05/01 09:27:45;;;;;;;9.18;6.38;;;22.60;78.80;;;;;;4913036;29;20064;-81
2022/05/01 09:30:13;;;;;;;11.68;6.50;;;22.60;81.10;;;;;;4907560;29;20036;-81
2022/05/01 09:32:40;;;;;;;7.35;6.10;;;22.50;80.20;;;;;;4919938;29;20032;-82
2022/05/01 09:35:12;;;;;;;6.82;6.13;;;22.50;77.30;;;;;;4914619;29;20021;-82
2022/05/01 09:37:38;;;;;;;6.28;5.65;;;22.40;78.50;;;;;;4909599;29;20544;-81
2022/05/01 09:40:04;;;;;;;6.78;4.15;;;22.30;75.60;;;;;;4907355;29;20040;-81
2022/05/01 09:42:34;;;;;;;6.38;5.78;;;21.90;72.70;;;;;;4910224;29;20040;-82
2022/05/01 09:45:14;;;;;;;8.23;5.90;;;21.60;79.50;;;;;;4904513;29;20051;-82
2022/05/01 09:47:45;;;;;;;9.10;6.13;;;21.30;82.60;;;;;;4910059;29;20032;-83
2022/05/01 09:50:13;;;;;;;11.05;6.20;;;20.90;83.20;;;;;;4916269;29;20103;-83
2022/05/01 09:52:59;;;;;;;7.97;6.10;;;20.20;87.50;;;;;;4908780;29;20024;-82
2022/05/01 09:55:27;;;;;;;10.32;7.28;;;19.50;92.70;;;;;;4904194;29;20028;-82
2022/05/01 09:58:09;;;;;;;16.27;8.85;;;19.10;95.40;;;;;;4907983;29;20029;-82
2022/05/01 10:00:45;;;;;;;28.35;10.55;;;18.40;98.40;;;;;;4905868;29;20087;-81
2022/05/01 10:03:24;;;;;;;14.68;10.23;;;17.40;99.90;;;;;;4908825;29;20513;-80
2022/05/01 10:05:51;;;;;;;10.20;6.57;;;16.50;99.90;;;;;;4906790;29;20076;-82
2022/05/01 10:08:18;;;;;;;13.27;8.73;;;16.00;99.90;;;;;;4908047;29;20028;-82
2022/05/01 10:10:46;;;;;;;11.10;9.00;;;15.90;99.90;;;;;;4909694;29;21400;-85
2022/05/01 10:13:15;;;;;;;13.57;10.18;;;15.50;99.90;;;;;;4932628;29;20407;-91
2022/05/01 10:15:41;;;;;;;11.80;10.10;;;15.60;99.90;;;;;;4911000;29;20028;-91
2022/05/01 10:18:08;;;;;;;9.75;8.35;;;15.60;99.90;;;;;;4912364;29;20056;-91
2022/05/01 10:20:34;;;;;;;11.63;8.68;;;15.80;99.90;;;;;;4915831;29;20024;-91
2022/05/01 10:23:02;;;;;;;10.80;8.90;;;16.20;99.90;;;;;;4905463;29;20048;-85
2022/05/01 10:25:32;;;;;;;11.65;8.55;;;16.50;99.90;;;;;;4916512;29;20020;-86
2022/05/01 10:28:28;;;;;;;11.82;9.48;;;16.90;99.90;;;;;;4926107;29;20052;-93
2022/05/01 10:34:39;;;;;;;13.02;11.57;;;17.40;99.90;;;;;;4905887;29;20047;-94
2022/05/01 10:37:30;;;;;;;14.00;11.15;;;17.60;99.90;;;;;;4905257;29;20036;-90
2022/05/01 10:39:58;;;;;;;16.17;10.85;;;17.80;99.90;;;;;;4913046;29;20028;-89
2022/05/01 10:42:43;;;;;;;16.67;11.43;;;18.10;99.90;;;;;;4912465;29;20083;-78
2022/05/01 10:45:25;;;;;;;14.30;10.13;;;18.40;99.90;;;;;;4916022;29;20024;-79
2022/05/01 10:47:55;;;;;;;11.95;9.63;;;18.50;99.90;;;;;;4929399;29;20032;-82
2022/05/01 10:50:24;;;;;;;13.18;8.93;;;18.60;99.90;;;;;;4912162;29;20024;-81
2022/05/01 10:53:16;;;;;;;11.57;9.93;;;18.70;99.90;;;;;;4913275;29;20388;-80
2022/05/01 10:55:48;;;;;;;13.35;10.93;;;18.70;99.90;;;;;;4923864;29;20121;-82
2022/05/01 10:58:18;;;;;;;10.30;9.05;;;18.70;99.90;;;;;;4927103;29;20559;-79
2022/05/01 11:00:46;;;;;;;11.77;10.23;;;18.70;99.90;;;;;;4907511;29;20100;-79
2022/05/01 11:03:29;;;;;;;8.40;7.60;;;18.60;99.90;;;;;;4919894;29;20098;-79
2022/05/01 11:06:13;;;;;;;;;;;18.80;99.90;;;;;;4903828;29;20032;-79
2022/05/01 11:08:40;;;;;;;9.38;7.18;;;19.40;99.90;;;;;;4913415;29;20343;-79
2022/05/01 11:11:10;;;;;;;9.93;6.97;;;20.30;99.90;;;;;;4905737;29;20036;-80
2022/05/01 11:13:38;;;;;;;7.97;7.18;;;20.90;99.90;;;;;;4920685;29;20048;-81
2022/05/01 11:16:05;;;;;;;11.85;7.10;;;21.50;99.90;;;;;;4904807;29;20024;-82
2022/05/01 11:18:35;;;;;;;10.57;6.50;;;21.90;99.90;;;;;;4903234;29;20029;-82
2022/05/01 11:21:19;;;;;;;9.52;6.60;;;22.40;99.20;;;;;;4902558;29;20059;-81
2022/05/01 11:23:46;;;;;;;7.88;4.55;;;22.70;96.90;;;;;;4906982;29;20080;-82
2022/05/01 11:26:17;;;;;;;4.43;4.00;;;22.40;96.80;;;;;;4902917;29;20055;-83
2022/05/01 11:28:46;;;;;;;5.72;4.40;;;22.10;96.40;;;;;;4917307;29;20448;-83
2022/05/01 11:31:38;;;;;;;9.27;5.07;;;21.90;95.70;;;;;;4907702;29;20484;-80
2022/05/01 11:34:16;;;;;;;8.32;6.35;;;21.30;96.20;;;;;;4909264;29;20124;-81
2022/05/01 11:36:57;;;;;;;8.52;6.00;;;20.90;95.50;;;;;;4906175;29;20055;-81
2022/05/01 11:39:51;;;;;;;9.07;6.75;;;20.00;96.30;;;;;;4911410;29;20040;-82
2022/05/01 11:42:26;;;;;;;8.35;7.53;;;19.40;99.00;;;;;;4905344;29;20079;-86
2022/05/01 11:44:55;;;;;;;11.60;7.90;;;19.00;99.90;;;;;;4905285;29;20073;-87
2022/05/01 11:47:23;;;;;;;8.65;7.85;;;18.90;99.90;;;;;;4908299;29;20031;-86
2022/05/01 11:49:52;;;;;;;9.18;8.25;;;18.40;99.90;;;;;;4901737;29;20396;-86
2022/05/01 11:52:19;;;;;;;9.52;8.43;;;17.80;99.90;;;;;;4917105;29;20021;-85
2022/05/01 11:54:58;;;;;;;11.02;8.85;;;17.50;99.90;;;;;;4900712;29;20087;-85
2022/05/01 12:03:00;;;;;;;9.80;8.70;;;18.00;99.90;;;;;;4905639;29;20080;-86
2022/05/01 12:05:31;;;;;;;7.28;6.60;;;18.50;99.90;;;;;;4901405;29;20056;-85
2022/05/01 12:07:59;;;;;;;9.40;8.40;;;18.70;99.90;;;;;;4903985;29;20028;-87
2022/05/01 12:10:26;;;;;;;7.72;7.03;;;18.80;99.90;;;;;;4904532;29;20028;-86
2022/05/01 12:12:52;;;;;;;11.13;7.88;;;18.70;99.90;;;;;;4904355;29;20048;-86
2022/05/01 12:15:18;;;;;;;8.77;6.15;;;18.40;99.90;;;;;;4907881;29;20028;-85
2022/05/01 12:17:44;;;;;;;8.20;7.38;;;18.10;99.90;;;;;;4907081;29;20040;-86
2022/05/01 12:20:11;;;;;;;10.98;7.53;;;17.90;99.90;;;;;;4909867;29;20051;-87
2022/05/01 12:22:37;;;;;;;8.38;7.38;;;17.90;99.90;;;;;;4903434;29;20119;-86
2022/05/01 12:25:10;;;;;;;8.65;7.55;;;17.50;99.90;;;;;;4903541;29;20107;-84
2022/05/01 12:27:40;;;;;;;9.23;7.90;;;17.10;99.90;;;;;;4903546;29;20020;-85
2022/05/01 12:30:08;;;;;;;17.45;7.25;;;16.90;99.90;;;;;;4902799;29;20029;-87
2022/05/01 12:32:35;;;;;;;10.35;7.72;;;16.60;99.90;;;;;;4924036;29;20028;-85
2022/05/01 12:35:03;;;;;;;16.88;6.93;;;16.30;99.90;;;;;;4901891;29;20020;-87
2022/05/01 12:37:34;;;;;;;9.23;8.32;;;16.20;99.90;;;;;;4921698;29;20128;-86
2022/05/01 12:40:04;;;;;;;8.43;6.72;;;16.10;99.90;;;;;;4921329;29;20688;-86
2022/05/01 12:45:37;;;;;;;9.60;7.78;;;16.20;99.90;;;;;;4906352;29;20147;-86
2022/05/01 12:48:05;;;;;;;8.85;7.75;;;16.40;99.90;;;;;;4904734;29;20468;-86
2022/05/01 12:50:32;;;;;;;8.32;7.53;;;16.40;99.90;;;;;;4899992;29;20067;-86
2022/05/01 12:53:18;;;;;;;8.60;7.80;;;16.40;99.90;;;;;;4919061;29;20035;-86
2022/05/01 12:55:44;;;;;;;11.68;8.25;;;16.40;99.90;;;;;;4904142;29;20040;-85
2022/05/01 12:58:11;;;;;;;8.65;7.13;;;16.70;99.90;;;;;;4904998;29;20039;-86
2022/05/01 13:00:45;;;;;;;8.50;7.28;;;16.90;99.90;;;;;;4906093;29;20020;-85
2022/05/01 13:03:21;;;;;;;9.10;6.43;;;17.20;99.90;;;;;;4908896;29;20075;-86
2022/05/01 13:06:15;;;;;;;7.72;6.72;;;17.40;99.90;;;;;;4909273;29;20036;-86
2022/05/01 13:08:53;;;;;;;7.80;6.63;;;17.80;99.90;;;;;;4900007;29;20040;-86
2022/05/01 13:11:29;;;;;;;9.65;7.03;;;17.90;99.90;;;;;;4905534;29;20152;-87
2022/05/01 13:13:56;;;;;;;9.90;6.18;;;17.70;99.90;;;;;;4907736;29;20111;-85
2022/05/01 13:16:41;;;;;;;7.00;5.90;;;17.60;99.90;;;;;;4902808;29;20025;-88
2022/05/01 13:19:18;;;;;;;10.38;6.75;;;17.60;99.90;;;;;;4898598;29;20056;-86
2022/05/01 13:21:50;;;;;;;8.70;6.40;;;17.70;99.90;;;;;;4902639;29;20120;-85
2022/05/01 13:24:29;;;;;;;7.20;6.10;;;18.00;99.90;;;;;;4921237;29;20037;-85
2022/05/01 13:26:57;;;;;;;7.28;6.45;;;18.40;99.90;;;;;;4903529;29;20032;-86
2022/05/01 13:29:23;;;;;;;6.63;5.75;;;19.00;99.90;;;;;;4903283;29;20543;-86
2022/05/01 13:31:49;;;;;;;8.20;5.78;;;19.40;99.90;;;;;;4903477;29;20028;-87
2022/05/01 13:34:16;;;;;;;5.13;4.63;;;21.10;99.90;;;;;;4920476;29;20127;-85
2022/05/01 13:36:42;;;;;;;4.25;3.85;;;24.40;98.10;;;;;;4903708;29;20484;-86
2022/05/01 13:39:09;;;;;;;4.82;4.38;;;26.10;94.40;;;;;;4901023;29;20032;-86
2022/05/01 13:47:05;;;;;;;5.20;4.68;;;25.80;93.10;;;;;;4902747;29;20121;-86
2022/05/01 13:49:33;;;;;;;5.07;4.68;;;24.80;94.10;;;;;;4901626;29;20483;-85
2022/05/01 13:51:59;;;;;;;6.10;4.60;;;24.80;95.00;;;;;;4904403;29;20034;-86